createdAt,value
2023-02-22T00:00:56.208Z,3.43
2023-02-22T00:02:27.095Z,3.57
2023-02-22T00:03:51.722Z,3.27
2023-02-22T00:05:16.779Z,3.13
2023-02-22T00:06:38.847Z,3.90
2023-02-22T00:08:00.883Z,2.80
2023-02-22T00:09:22.904Z,4.00
2023-02-22T00:10:45.176Z,3.60
2023-02-22T00:12:08.713Z,2.80
2023-02-22T00:13:31.121Z,4.00
2023-02-22T00:14:53.243Z,3.47
2023-02-22T00:16:21.556Z,4.13
2023-02-22T00:17:44.376Z,2.80
2023-02-22T00:19:07.041Z,3.30
2023-02-22T00:20:29.207Z,3.77
2023-02-22T00:21:54.447Z,3.87
2023-02-22T00:23:20.412Z,4.07
2023-02-22T00:24:42.468Z,4.00
2023-02-22T00:26:04.669Z,3.23
2023-02-22T00:27:26.813Z,3.67
2023-02-22T00:28:53.643Z,5.00
2023-02-22T00:30:19.184Z,2.80
2023-02-22T00:31:41.272Z,3.73
2023-02-22T00:33:06.010Z,4.10
2023-02-22T00:34:28.096Z,4.40
2023-02-22T00:35:50.170Z,4.23
2023-02-22T00:37:12.189Z,4.07
2023-02-22T00:38:34.456Z,4.57
2023-02-22T00:39:56.528Z,3.20
2023-02-22T00:41:18.950Z,3.20
2023-02-22T00:42:41.315Z,3.80
2023-02-22T00:44:03.425Z,5.57
2023-02-22T00:45:27.085Z,3.33
2023-02-22T00:46:49.715Z,7.37
2023-02-22T00:48:11.803Z,4.73
2023-02-22T00:49:34.841Z,5.27
2023-02-22T00:50:57.022Z,4.10
2023-02-22T00:52:19.101Z,3.80
2023-02-22T00:53:41.151Z,3.70
2023-02-22T00:55:05.871Z,5.10
2023-02-22T00:56:28.114Z,5.73
2023-02-22T00:57:51.196Z,5.23
2023-02-22T00:59:13.275Z,3.60
2023-02-22T01:00:38.528Z,4.60
2023-02-22T01:02:00.595Z,5.33
2023-02-22T01:03:22.956Z,9.80
2023-02-22T01:04:45.618Z,10.33
2023-02-22T01:06:08.059Z,8.43
2023-02-22T01:07:30.166Z,5.30
2023-02-22T01:08:52.284Z,6.17
2023-02-22T01:10:14.738Z,5.30
2023-02-22T01:11:36.814Z,4.63
2023-02-22T01:13:00.257Z,4.00
2023-02-22T01:14:23.755Z,4.57
2023-02-22T01:15:46.475Z,4.33
2023-02-22T01:17:08.597Z,4.77
2023-02-22T01:18:30.701Z,5.30
2023-02-22T01:19:54.086Z,5.23
2023-02-22T01:21:16.452Z,7.03
2023-02-22T01:22:48.555Z,5.17
2023-02-22T01:24:11.495Z,4.27
2023-02-22T01:25:34.899Z,3.80
2023-02-22T01:26:57.120Z,4.03
2023-02-22T01:28:19.473Z,5.23
2023-02-22T01:29:41.656Z,3.80
2023-02-22T01:31:04.400Z,3.33
2023-02-22T01:32:26.469Z,3.10
2023-02-22T01:33:48.596Z,4.30
2023-02-22T01:35:15.738Z,4.00
2023-02-22T01:36:37.875Z,3.33
2023-02-22T01:38:00.110Z,4.07
2023-02-22T01:39:22.239Z,3.43
2023-02-22T01:40:49.197Z,4.03
2023-02-22T01:42:11.303Z,3.70
2023-02-22T01:43:33.536Z,3.73
2023-02-22T01:45:40.408Z,3.90
2023-02-22T01:47:04.809Z,3.27
2023-02-22T01:48:29.861Z,5.77
2023-02-22T01:49:52.227Z,7.03
2023-02-22T01:51:24.233Z,7.50
2023-02-22T01:52:46.345Z,6.10
2023-02-22T01:54:13.856Z,6.13
2023-02-22T01:55:36.413Z,5.10
2023-02-22T01:57:00.109Z,5.00
2023-02-22T01:58:24.313Z,5.90
2023-02-22T01:59:50.034Z,5.63
2023-02-22T02:01:12.315Z,6.90
2023-02-22T02:02:34.363Z,5.83
2023-02-22T02:03:59.753Z,5.23
2023-02-22T02:05:24.165Z,4.40
2023-02-22T02:06:48.383Z,4.93
2023-02-22T02:08:36.800Z,5.60
2023-02-22T02:10:01.595Z,4.60
2023-02-22T02:11:27.987Z,4.43
2023-02-22T02:12:52.322Z,3.97
2023-02-22T02:14:14.714Z,3.53
2023-02-22T02:15:37.171Z,4.30
2023-02-22T02:17:01.479Z,3.47
2023-02-22T02:18:25.938Z,3.30
2023-02-22T02:20:13.434Z,3.43
2023-02-22T02:21:35.579Z,3.63
2023-02-22T02:23:12.414Z,4.70
2023-02-22T02:25:05.058Z,3.33
2023-02-22T02:26:48.730Z,2.87
2023-02-22T02:28:34.112Z,3.93
2023-02-22T02:30:37.062Z,3.33
2023-02-22T02:32:21.020Z,3.60
2023-02-22T02:33:58.745Z,3.50
2023-02-22T02:35:43.410Z,3.43
2023-02-22T02:37:34.938Z,3.53
2023-02-22T02:39:11.945Z,3.40
2023-02-22T02:41:07.788Z,3.53
2023-02-22T02:42:36.913Z,2.80
2023-02-22T02:44:15.847Z,3.67
2023-02-22T02:45:58.648Z,3.50
2023-02-22T02:47:34.747Z,3.40
2023-02-22T02:49:01.623Z,4.50
2023-02-22T02:50:33.792Z,2.90
2023-02-22T02:51:58.492Z,3.23
2023-02-22T02:53:25.090Z,4.20
2023-02-22T02:54:48.111Z,3.77
2023-02-22T02:56:10.234Z,3.60
2023-02-22T02:57:32.349Z,3.60
2023-02-22T02:58:54.812Z,3.53
2023-02-22T03:00:22.633Z,3.00
2023-02-22T03:01:57.969Z,2.97
2023-02-22T03:03:41.610Z,4.20
2023-02-22T03:05:39.176Z,3.33
2023-02-22T03:07:17.244Z,3.43
2023-02-22T03:08:46.225Z,3.23
2023-02-22T03:10:37.773Z,3.60
2023-02-22T03:12:36.837Z,4.80
2023-02-22T03:14:05.043Z,5.30
2023-02-22T03:15:57.597Z,3.77
2023-02-22T03:17:46.950Z,4.20
2023-02-22T03:19:45.449Z,3.77
2023-02-22T03:21:15.501Z,4.63
2023-02-22T03:22:57.241Z,3.27
2023-02-22T03:24:28.261Z,4.07
2023-02-22T03:25:59.141Z,4.03
2023-02-22T03:27:24.630Z,5.37
2023-02-22T03:28:48.570Z,3.97
2023-02-22T03:30:23.933Z,4.20
2023-02-22T03:31:52.265Z,5.00
2023-02-22T03:33:33.683Z,4.77
2023-02-22T03:35:01.083Z,6.57
2023-02-22T03:36:32.737Z,5.50
2023-02-22T03:37:58.569Z,7.87
2023-02-22T03:39:21.169Z,7.00
2023-02-22T03:40:48.172Z,8.10
2023-02-22T03:42:16.887Z,6.00
2023-02-22T03:43:48.248Z,8.07
2023-02-22T03:45:14.056Z,7.47
2023-02-22T03:46:38.636Z,7.73
2023-02-22T03:48:10.247Z,7.40
2023-02-22T03:50:07.476Z,8.17
2023-02-22T03:51:29.872Z,7.23
2023-02-22T03:52:53.279Z,7.77
2023-02-22T03:54:16.529Z,6.87
2023-02-22T03:55:38.769Z,7.33
2023-02-22T03:57:35.167Z,8.03
2023-02-22T03:58:57.321Z,5.57
2023-02-22T04:00:25.847Z,7.40
2023-02-22T04:01:47.895Z,6.63
2023-02-22T04:03:10.452Z,4.80
2023-02-22T04:04:32.598Z,6.30
2023-02-22T04:05:54.686Z,3.90
2023-02-22T04:07:17.380Z,4.40
2023-02-22T04:08:39.419Z,4.30
2023-02-22T04:10:03.266Z,4.40
2023-02-22T04:11:25.395Z,4.10
2023-02-22T04:12:47.477Z,3.77
2023-02-22T04:14:09.623Z,5.30
2023-02-22T04:15:31.657Z,5.77
2023-02-22T04:16:53.706Z,4.07
2023-02-22T04:18:15.857Z,4.90
2023-02-22T04:19:37.940Z,3.80
2023-02-22T04:20:59.955Z,6.07
2023-02-22T04:22:22.136Z,4.83
2023-02-22T04:23:44.243Z,4.57
2023-02-22T04:25:07.063Z,4.70
2023-02-22T04:26:29.171Z,3.73
2023-02-22T04:27:52.042Z,4.13
2023-02-22T04:29:14.111Z,5.20
2023-02-22T04:30:36.267Z,4.27
2023-02-22T04:31:58.476Z,4.77
2023-02-22T04:33:20.584Z,3.17
2023-02-22T04:34:42.707Z,4.20
2023-02-22T04:36:05.220Z,4.07
2023-02-22T04:37:27.297Z,4.10
2023-02-22T04:38:49.354Z,3.03
2023-02-22T04:40:11.648Z,3.20
2023-02-22T04:41:34.512Z,3.80
2023-02-22T04:42:56.626Z,3.00
2023-02-22T04:44:18.699Z,2.60
2023-02-22T04:45:40.784Z,3.40
2023-02-22T04:47:02.881Z,2.60
2023-02-22T04:48:24.940Z,2.77
2023-02-22T04:49:47.038Z,3.23
2023-02-22T04:51:09.605Z,3.07
2023-02-22T04:52:31.748Z,3.20
2023-02-22T04:53:53.808Z,2.27
2023-02-22T04:55:16.631Z,2.00
2023-02-22T04:56:38.710Z,2.53
2023-02-22T04:58:00.951Z,2.13
2023-02-22T04:59:23.162Z,2.77
2023-02-22T05:00:45.511Z,2.03
2023-02-22T05:02:07.685Z,1.90
2023-02-22T05:03:29.707Z,1.83
2023-02-22T05:04:51.817Z,2.00
2023-02-22T05:06:13.917Z,2.10
2023-02-22T05:07:36.010Z,1.73
2023-02-22T05:08:58.053Z,1.70
2023-02-22T05:10:20.393Z,1.47
2023-02-22T05:11:42.486Z,1.70
2023-02-22T05:13:06.069Z,1.80
2023-02-22T05:14:28.089Z,2.13
2023-02-22T05:15:50.198Z,1.77
2023-02-22T05:17:12.697Z,2.20
2023-02-22T05:18:34.855Z,1.63
2023-02-22T05:19:56.993Z,3.93
2023-02-22T05:21:19.187Z,2.53
2023-02-22T05:22:41.434Z,1.90
2023-02-22T05:24:03.568Z,2.33
2023-02-22T05:25:26.380Z,2.10
2023-02-22T05:26:48.576Z,2.90
2023-02-22T05:28:15.336Z,3.30
2023-02-22T05:29:38.688Z,4.27
2023-02-22T05:31:00.881Z,3.87
2023-02-22T05:32:23.013Z,2.23
2023-02-22T05:33:45.113Z,2.90
2023-02-22T05:35:08.387Z,1.83
2023-02-22T05:36:30.473Z,2.83
2023-02-22T05:37:53.323Z,2.40
2023-02-22T05:39:15.393Z,2.83
2023-02-22T05:40:37.410Z,2.90
2023-02-22T05:41:59.626Z,2.33
2023-02-22T05:43:21.669Z,2.83
2023-02-22T05:44:44.001Z,3.00
2023-02-22T05:46:06.301Z,2.40
2023-02-22T05:47:28.312Z,2.10
2023-02-22T05:48:50.602Z,2.07
2023-02-22T05:50:12.852Z,2.10
2023-02-22T05:51:35.025Z,2.30
2023-02-22T05:52:57.149Z,2.40
2023-02-22T05:54:19.252Z,2.60
2023-02-22T05:55:41.422Z,2.23
2023-02-22T05:57:03.719Z,2.33
2023-02-22T05:58:25.768Z,2.30
2023-02-22T05:59:47.975Z,2.10
2023-02-22T06:01:10.061Z,2.10
2023-02-22T06:02:32.224Z,2.50
2023-02-22T06:03:54.374Z,2.00
2023-02-22T06:05:16.470Z,2.60
2023-02-22T06:06:38.595Z,1.93
2023-02-22T06:08:01.678Z,2.30
2023-02-22T06:09:23.735Z,2.80
2023-02-22T06:10:45.785Z,1.53
2023-02-22T06:12:08.390Z,2.27
2023-02-22T06:13:30.561Z,2.20
2023-02-22T06:14:52.626Z,2.37
2023-02-22T06:16:14.747Z,2.40
2023-02-22T06:17:36.819Z,2.30
2023-02-22T06:18:59.886Z,2.00
2023-02-22T06:20:24.153Z,2.90
2023-02-22T06:21:51.506Z,2.30
2023-02-22T06:23:13.560Z,2.77
2023-02-22T06:24:39.196Z,2.90
2023-02-22T06:26:01.227Z,3.50
2023-02-22T06:27:23.272Z,2.43
2023-02-22T06:28:46.251Z,2.50
2023-02-22T06:30:11.761Z,2.30
2023-02-22T06:31:35.081Z,2.80
2023-02-22T06:32:57.497Z,2.90
2023-02-22T06:34:20.188Z,3.30
2023-02-22T06:35:42.385Z,3.30
2023-02-22T06:37:04.432Z,2.90
2023-02-22T06:38:27.721Z,3.37
2023-02-22T06:39:49.814Z,2.50
2023-02-22T06:41:11.835Z,2.20
2023-02-22T06:42:33.955Z,1.83
2023-02-22T06:43:55.991Z,1.80
2023-02-22T06:45:18.427Z,1.90
2023-02-22T06:46:40.611Z,1.63
2023-02-22T06:48:02.691Z,1.90
2023-02-22T06:49:24.793Z,2.07
2023-02-22T06:50:46.867Z,3.00
2023-02-22T06:52:10.285Z,2.33
2023-02-22T06:53:32.326Z,1.80
2023-02-22T06:54:54.430Z,3.10
2023-02-22T06:56:16.531Z,2.80
2023-02-22T06:57:38.572Z,2.93
2023-02-22T06:59:02.873Z,3.03
2023-02-22T07:00:26.911Z,3.20
2023-02-22T07:01:49.378Z,3.10
2023-02-22T07:03:11.614Z,2.40
2023-02-22T07:04:34.220Z,2.97
2023-02-22T07:05:57.182Z,2.80
2023-02-22T07:07:22.745Z,2.10
2023-02-22T07:08:44.905Z,2.00
2023-02-22T07:10:08.579Z,1.93
2023-02-22T07:11:30.627Z,2.40
2023-02-22T07:12:52.726Z,3.10
2023-02-22T07:14:17.337Z,2.47
2023-02-22T07:15:39.428Z,2.80
2023-02-22T07:17:01.593Z,2.17
2023-02-22T07:18:24.145Z,2.13
2023-02-22T07:19:46.288Z,2.10
2023-02-22T07:21:08.404Z,2.40
2023-02-22T07:22:30.699Z,2.20
2023-02-22T07:23:53.846Z,2.27
2023-02-22T07:25:16.106Z,2.47
2023-02-22T07:26:42.313Z,3.10
2023-02-22T07:28:04.613Z,2.30
2023-02-22T07:29:26.770Z,3.50
2023-02-22T07:30:49.013Z,2.43
2023-02-22T07:32:11.354Z,2.90
2023-02-22T07:33:33.530Z,2.80
2023-02-22T07:34:55.547Z,2.90
2023-02-22T07:36:18.038Z,3.30
2023-02-22T07:37:40.295Z,2.97
2023-02-22T07:39:02.343Z,3.93
2023-02-22T07:40:26.618Z,3.23
2023-02-22T07:41:49.776Z,10.27
2023-02-22T07:43:22.552Z,9.30
2023-02-22T07:44:44.589Z,7.17
2023-02-22T07:46:06.905Z,7.73
2023-02-22T07:47:29.000Z,4.83
2023-02-22T07:48:51.038Z,4.73
2023-02-22T07:50:17.736Z,4.10
2023-02-22T07:51:39.859Z,4.70
2023-02-22T07:53:11.041Z,3.83
2023-02-22T07:54:33.093Z,2.80
2023-02-22T07:55:55.365Z,2.77
2023-02-22T07:57:17.740Z,3.00
2023-02-22T07:58:39.778Z,2.67
2023-02-22T08:00:01.888Z,3.17
2023-02-22T08:01:24.675Z,3.03
2023-02-22T08:02:46.859Z,2.97
2023-02-22T08:04:08.943Z,3.43
2023-02-22T08:05:32.894Z,4.43
2023-02-22T08:06:54.929Z,3.10
2023-02-22T08:08:19.765Z,3.00
2023-02-22T08:09:42.007Z,3.03
2023-02-22T08:11:04.839Z,2.57
2023-02-22T08:12:26.935Z,2.80
2023-02-22T08:13:49.003Z,2.90
2023-02-22T08:15:19.036Z,3.03
2023-02-22T08:16:41.145Z,3.20
2023-02-22T08:18:05.398Z,2.83
2023-02-22T08:19:27.450Z,3.23
2023-02-22T08:20:52.094Z,3.30
2023-02-22T08:22:14.239Z,2.83
2023-02-22T08:23:36.305Z,2.90
2023-02-22T08:24:58.473Z,3.23
2023-02-22T08:26:20.812Z,2.97
2023-02-22T08:27:43.903Z,2.40
2023-02-22T08:29:06.495Z,3.20
2023-02-22T08:30:30.781Z,3.63
2023-02-22T08:31:54.105Z,4.40
2023-02-22T08:33:19.483Z,3.70
2023-02-22T08:34:45.188Z,4.80
2023-02-22T08:36:07.620Z,3.87
2023-02-22T08:37:29.732Z,4.30
2023-02-22T08:38:51.785Z,4.37
2023-02-22T08:40:15.106Z,3.80
2023-02-22T08:41:37.212Z,3.80
2023-02-22T08:42:59.360Z,4.27
2023-02-22T08:44:24.095Z,3.73
2023-02-22T08:45:46.957Z,3.90
2023-02-22T08:47:09.023Z,4.47
2023-02-22T08:48:31.096Z,3.87
2023-02-22T08:49:53.332Z,3.90
2023-02-22T08:51:15.647Z,4.20
2023-02-22T08:52:37.914Z,4.53
2023-02-22T08:54:00.005Z,3.83
2023-02-22T08:55:24.195Z,3.97
2023-02-22T08:56:46.260Z,3.90
2023-02-22T08:58:09.560Z,3.97
2023-02-22T08:59:31.684Z,3.83
2023-02-22T09:00:54.006Z,4.37
2023-02-22T09:02:18.136Z,3.90
2023-02-22T09:03:40.217Z,4.47
2023-02-22T09:05:02.300Z,4.80
2023-02-22T09:06:24.474Z,5.57
2023-02-22T09:07:46.576Z,4.73
2023-02-22T09:09:08.684Z,4.57
2023-02-22T09:10:33.665Z,5.40
2023-02-22T09:11:55.702Z,5.73
2023-02-22T09:13:18.026Z,3.70
2023-02-22T09:14:40.045Z,4.60
2023-02-22T09:16:02.122Z,4.00
2023-02-22T09:17:25.781Z,5.53
2023-02-22T09:18:48.316Z,4.80
2023-02-22T09:20:12.318Z,5.03
2023-02-22T09:21:34.372Z,4.10
2023-02-22T09:22:57.031Z,4.00
2023-02-22T09:24:19.146Z,2.63
2023-02-22T09:25:41.255Z,3.80
2023-02-22T09:27:04.519Z,3.07
2023-02-22T09:28:29.233Z,3.67
2023-02-22T09:29:52.013Z,3.60
2023-02-22T09:31:14.145Z,3.43
2023-02-22T09:32:36.881Z,2.90
2023-02-22T09:33:59.031Z,3.43
2023-02-22T09:35:26.821Z,3.83
2023-02-22T09:36:49.757Z,3.40
2023-02-22T09:38:13.813Z,4.13
2023-02-22T09:39:37.516Z,3.73
2023-02-22T09:41:34.543Z,4.17
2023-02-22T09:43:20.634Z,5.03
2023-02-22T09:45:12.762Z,3.93
2023-02-22T09:46:42.020Z,4.27
2023-02-22T09:48:20.743Z,3.70
2023-02-22T09:50:15.539Z,4.23
2023-02-22T09:51:59.478Z,4.20
2023-02-22T09:53:22.004Z,4.33
2023-02-22T09:54:52.217Z,4.70
2023-02-22T09:56:18.157Z,4.90
2023-02-22T09:57:43.530Z,4.47
2023-02-22T09:59:12.313Z,4.33
2023-02-22T10:00:38.023Z,4.73
2023-02-22T10:02:27.428Z,4.70
2023-02-22T10:04:08.128Z,5.07
2023-02-22T10:05:42.846Z,5.20
2023-02-22T10:07:39.150Z,5.67
2023-02-22T10:09:07.941Z,5.33
2023-02-22T10:10:34.379Z,5.20
2023-02-22T10:12:12.742Z,5.87
2023-02-22T10:13:46.826Z,5.37
2023-02-22T10:15:31.529Z,5.47
2023-02-22T10:16:59.378Z,5.30
2023-02-22T10:18:45.612Z,5.80
2023-02-22T10:20:22.838Z,5.27
2023-02-22T10:21:44.807Z,4.53
2023-02-22T10:23:20.038Z,6.60
2023-02-22T10:25:02.329Z,6.27
2023-02-22T10:26:28.485Z,4.77
2023-02-22T10:28:10.967Z,6.00
2023-02-22T10:29:40.651Z,5.67
2023-02-22T10:31:08.453Z,5.40
2023-02-22T10:32:43.143Z,7.80
2023-02-22T10:34:13.228Z,6.40
2023-02-22T10:35:40.980Z,6.17
2023-02-22T10:37:27.368Z,5.67
2023-02-22T10:39:00.198Z,5.93
2023-02-22T10:40:33.553Z,4.60
2023-02-22T10:41:58.923Z,6.17
2023-02-22T10:43:21.198Z,5.67
2023-02-22T10:44:43.298Z,5.60
2023-02-22T10:46:08.484Z,5.10
2023-02-22T10:47:32.394Z,6.27
2023-02-22T10:49:00.168Z,4.97
2023-02-22T10:50:22.691Z,5.70
2023-02-22T10:51:46.000Z,5.83
2023-02-22T10:53:09.866Z,5.40
2023-02-22T10:54:42.720Z,5.17
2023-02-22T10:56:08.785Z,5.23
2023-02-22T10:57:35.676Z,5.00
2023-02-22T10:59:02.346Z,6.40
2023-02-22T11:00:39.685Z,6.20
2023-02-22T11:02:23.368Z,5.93
2023-02-22T11:03:45.590Z,5.80
2023-02-22T11:05:25.628Z,5.47
2023-02-22T11:06:56.143Z,5.97
2023-02-22T11:08:21.024Z,5.93
2023-02-22T11:09:54.724Z,5.57
2023-02-22T11:11:25.362Z,5.67
2023-02-22T11:12:48.893Z,5.87
2023-02-22T11:14:12.017Z,6.00
2023-02-22T11:15:35.972Z,5.63
2023-02-22T11:17:00.553Z,5.40
2023-02-22T11:18:26.712Z,7.10
2023-02-22T11:19:51.686Z,5.60
2023-02-22T11:21:20.175Z,5.47
2023-02-22T11:22:43.036Z,6.63
2023-02-22T11:24:14.278Z,5.47
2023-02-22T11:25:42.538Z,5.97
2023-02-22T11:27:08.233Z,5.67
2023-02-22T11:28:32.797Z,7.00
2023-02-22T11:30:06.553Z,5.60
2023-02-22T11:31:30.322Z,5.87
2023-02-22T11:33:03.291Z,5.77
2023-02-22T11:34:36.366Z,6.10
2023-02-22T11:36:02.404Z,5.50
2023-02-22T11:37:30.505Z,5.40
2023-02-22T11:38:59.506Z,5.30
2023-02-22T11:40:23.446Z,6.10
2023-02-22T11:41:49.263Z,5.87
2023-02-22T11:43:19.311Z,6.03
2023-02-22T11:44:44.656Z,5.30
2023-02-22T11:46:17.620Z,6.27
2023-02-22T11:47:59.017Z,6.30
2023-02-22T11:49:23.201Z,6.23
2023-02-22T11:51:03.683Z,5.13
2023-02-22T11:52:36.674Z,5.37
2023-02-22T11:54:31.252Z,6.70
2023-02-22T11:56:12.127Z,5.47
2023-02-22T11:57:34.697Z,5.70
2023-02-22T11:59:24.357Z,6.33
2023-02-22T12:01:07.005Z,6.63
2023-02-22T12:02:56.753Z,5.67
2023-02-22T12:04:40.939Z,6.07
2023-02-22T12:06:28.117Z,6.53
2023-02-22T12:07:56.500Z,6.73
2023-02-22T12:09:24.069Z,7.00
2023-02-22T12:10:55.519Z,7.07
2023-02-22T12:12:29.569Z,8.10
2023-02-22T12:14:17.510Z,6.97
2023-02-22T12:16:04.399Z,7.77
2023-02-22T12:17:35.015Z,8.10
2023-02-22T12:19:22.113Z,7.60
2023-02-22T12:20:48.258Z,8.23
2023-02-22T12:22:35.951Z,8.97
2023-02-22T12:24:16.349Z,9.00
2023-02-22T12:25:44.151Z,8.40
2023-02-22T12:27:18.602Z,9.13
2023-02-22T12:29:00.567Z,8.43
2023-02-22T12:30:38.093Z,8.13
2023-02-22T12:32:07.092Z,8.40
2023-02-22T12:33:42.521Z,9.07
2023-02-22T12:35:24.613Z,8.73
2023-02-22T12:36:51.877Z,8.73
2023-02-22T12:38:44.285Z,8.43
2023-02-22T12:40:23.413Z,8.90
2023-02-22T12:41:48.537Z,9.50
2023-02-22T12:43:22.794Z,9.63
2023-02-22T12:44:51.233Z,8.20
2023-02-22T12:46:32.104Z,8.87
2023-02-22T12:48:18.246Z,9.93
2023-02-22T12:49:58.109Z,9.33
2023-02-22T12:51:45.605Z,9.57
2023-02-22T12:53:34.601Z,10.77
2023-02-22T12:55:11.067Z,10.47
2023-02-22T12:56:59.304Z,10.70
2023-02-22T12:58:33.347Z,9.63
2023-02-22T13:00:17.792Z,10.83
2023-02-22T13:01:44.106Z,9.83
2023-02-22T13:03:30.622Z,11.33
2023-02-22T13:04:53.068Z,11.53
2023-02-22T13:06:21.178Z,11.73
2023-02-22T13:08:09.295Z,10.90
2023-02-22T13:10:07.541Z,14.00
2023-02-22T13:11:32.270Z,12.37
2023-02-22T13:12:58.143Z,12.90
2023-02-22T13:14:51.203Z,13.37
2023-02-22T13:16:22.275Z,13.67
2023-02-22T13:17:53.302Z,12.87
2023-02-22T13:19:38.229Z,14.60
2023-02-22T13:21:18.736Z,12.90
2023-02-22T13:22:43.953Z,13.77
2023-02-22T13:24:40.760Z,14.77
2023-02-22T13:26:08.037Z,13.17
2023-02-22T13:27:55.261Z,13.03
2023-02-22T13:29:46.333Z,12.57
2023-02-22T13:31:11.401Z,13.10
2023-02-22T13:32:57.043Z,11.40
2023-02-22T13:34:46.347Z,13.33
2023-02-22T13:36:18.016Z,12.27
2023-02-22T13:38:17.146Z,14.23
2023-02-22T13:40:03.051Z,12.80
2023-02-22T13:41:40.235Z,13.03
2023-02-22T13:43:21.012Z,13.67
2023-02-22T13:45:09.903Z,14.27
2023-02-22T13:46:46.438Z,12.30
2023-02-22T13:48:27.957Z,14.43
2023-02-22T13:50:32.342Z,16.10
2023-02-22T13:52:02.307Z,13.53
2023-02-22T13:53:29.108Z,15.00
2023-02-22T13:55:00.208Z,14.80
2023-02-22T13:56:24.903Z,15.17
2023-02-22T13:57:50.801Z,15.23
2023-02-22T13:59:37.196Z,14.80
2023-02-22T14:01:00.011Z,13.57
2023-02-22T14:02:52.897Z,14.07
2023-02-22T14:04:37.126Z,13.73
2023-02-22T14:06:00.976Z,12.70
2023-02-22T14:07:23.790Z,16.00
2023-02-22T14:08:45.948Z,15.13
2023-02-22T14:10:39.939Z,14.97
2023-02-22T14:12:02.047Z,16.17
2023-02-22T14:13:29.178Z,14.87
2023-02-22T14:15:30.171Z,15.17
2023-02-22T14:17:21.694Z,15.37
2023-02-22T14:18:46.464Z,14.83
2023-02-22T14:20:22.163Z,16.43
2023-02-22T14:22:02.104Z,15.47
2023-02-22T14:23:40.302Z,15.27
2023-02-22T14:25:02.525Z,14.13
2023-02-22T14:26:39.724Z,13.50
2023-02-22T14:28:03.631Z,13.40
2023-02-22T14:29:26.169Z,12.70
2023-02-22T14:30:48.269Z,14.20
2023-02-22T14:32:12.795Z,13.00
2023-02-22T14:33:52.462Z,13.63
2023-02-22T14:35:28.652Z,15.00
2023-02-22T14:37:08.902Z,13.90
2023-02-22T14:38:31.106Z,12.90
2023-02-22T14:40:21.566Z,13.77
2023-02-22T14:41:54.313Z,13.20
2023-02-22T14:43:21.082Z,13.60
2023-02-22T14:45:02.690Z,13.00
2023-02-22T14:46:29.686Z,13.90
2023-02-22T14:48:15.553Z,13.83
2023-02-22T14:49:44.079Z,13.70
2023-02-22T14:51:21.359Z,14.37
2023-02-22T14:52:48.756Z,14.43
2023-02-22T14:54:20.553Z,14.33
2023-02-22T14:55:50.885Z,14.13
2023-02-22T14:57:24.452Z,13.87
2023-02-22T14:58:55.255Z,14.80
2023-02-22T15:00:20.334Z,14.00
2023-02-22T15:01:55.729Z,14.17
2023-02-22T15:03:37.077Z,12.97
2023-02-22T15:05:00.426Z,13.13
2023-02-22T15:06:28.755Z,13.93
2023-02-22T15:07:59.963Z,15.20
2023-02-22T15:09:30.095Z,15.03
2023-02-22T15:10:54.411Z,15.80
2023-02-22T15:12:31.211Z,15.27
2023-02-22T15:13:54.864Z,15.30
2023-02-22T15:15:24.627Z,15.90
2023-02-22T15:16:53.819Z,17.00
2023-02-22T15:18:18.963Z,17.00
2023-02-22T15:19:42.412Z,17.80
2023-02-22T15:21:16.379Z,16.40
2023-02-22T15:22:39.106Z,16.87
2023-02-22T15:24:07.891Z,16.87
2023-02-22T15:25:31.559Z,17.63
2023-02-22T15:27:01.964Z,17.20
2023-02-22T15:28:29.003Z,16.30
2023-02-22T15:30:04.814Z,18.27
2023-02-22T15:31:34.352Z,18.47
2023-02-22T15:33:04.444Z,19.50
2023-02-22T15:34:32.242Z,17.43
2023-02-22T15:35:57.185Z,18.37
2023-02-22T15:37:25.380Z,19.17
2023-02-22T15:38:53.430Z,19.83
2023-02-22T15:40:18.583Z,19.37
2023-02-22T15:41:40.643Z,21.20
2023-02-22T15:43:08.778Z,17.93
2023-02-22T15:44:36.204Z,20.47
2023-02-22T15:45:59.852Z,20.00
2023-02-22T15:47:23.636Z,19.63
2023-02-22T15:49:04.792Z,21.10
2023-02-22T15:50:34.612Z,19.23
2023-02-22T15:52:09.985Z,20.23
2023-02-22T15:53:44.212Z,21.35
2023-02-22T15:55:10.926Z,19.93
2023-02-22T15:56:35.339Z,18.90
2023-02-22T15:58:01.751Z,19.67
2023-02-22T15:59:30.366Z,19.97
2023-02-22T16:01:17.042Z,19.97
2023-02-22T16:02:41.706Z,19.20
2023-02-22T16:04:04.237Z,19.03
2023-02-22T16:05:38.065Z,18.40
2023-02-22T16:07:08.061Z,18.75
2023-02-22T16:08:54.113Z,17.83
2023-02-22T16:10:27.137Z,18.75
2023-02-22T16:11:49.714Z,20.70
2023-02-22T16:13:37.128Z,17.33
2023-02-22T16:15:03.282Z,17.57
2023-02-22T16:16:34.267Z,17.80
2023-02-22T16:18:02.390Z,17.50
2023-02-22T16:19:42.638Z,19.20
2023-02-22T16:21:18.887Z,16.20
2023-02-22T16:22:49.066Z,15.33
2023-02-22T16:24:30.137Z,16.33
2023-02-22T16:26:04.409Z,16.40
2023-02-22T16:27:26.521Z,16.37
2023-02-22T16:28:53.603Z,15.43
2023-02-22T16:30:24.894Z,17.17
2023-02-22T16:31:47.886Z,16.90
2023-02-22T16:33:16.693Z,14.10
2023-02-22T16:34:38.998Z,15.10
2023-02-22T16:36:08.035Z,17.40
2023-02-22T16:37:30.473Z,14.00
2023-02-22T16:38:53.687Z,14.17
2023-02-22T16:40:32.335Z,13.10
2023-02-22T16:41:58.329Z,14.27
2023-02-22T16:43:23.208Z,12.90
2023-02-22T16:44:45.656Z,13.00
2023-02-22T16:46:07.849Z,13.00
2023-02-22T16:47:30.000Z,13.70
2023-02-22T16:48:52.103Z,11.67
2023-02-22T16:50:17.250Z,11.37
2023-02-22T16:52:01.453Z,10.33
2023-02-22T16:53:26.366Z,10.60
2023-02-22T16:54:49.141Z,11.00
2023-02-22T16:56:15.992Z,9.60
2023-02-22T16:57:39.727Z,9.60
2023-02-22T16:59:14.777Z,9.40
2023-02-22T17:00:36.930Z,9.30
2023-02-22T17:01:59.176Z,8.97
2023-02-22T17:03:21.585Z,9.23
2023-02-22T17:04:49.248Z,9.90
2023-02-22T17:06:11.860Z,7.70
2023-02-22T17:07:34.074Z,7.43
2023-02-22T17:08:56.499Z,7.90
2023-02-22T17:10:18.839Z,7.87
2023-02-22T17:11:41.641Z,8.23
2023-02-22T17:13:21.262Z,8.30
2023-02-22T17:14:46.177Z,7.23
2023-02-22T17:16:14.743Z,7.87
2023-02-22T17:17:36.916Z,8.00
2023-02-22T17:18:59.279Z,8.40
2023-02-22T17:20:40.481Z,8.10
2023-02-22T17:22:05.992Z,7.10
2023-02-22T17:23:28.628Z,6.97
2023-02-22T17:24:50.671Z,8.20
2023-02-22T17:26:14.377Z,7.30
2023-02-22T17:27:36.596Z,7.17
2023-02-22T17:28:58.686Z,6.40
2023-02-22T17:30:23.666Z,7.47
2023-02-22T17:31:46.404Z,6.33
2023-02-22T17:33:09.979Z,6.60
2023-02-22T17:34:32.632Z,6.77
2023-02-22T17:36:01.829Z,6.67
2023-02-22T17:37:25.558Z,8.50
2023-02-22T17:38:47.854Z,6.20
2023-02-22T17:40:10.204Z,7.43
2023-02-22T17:41:32.328Z,6.63
2023-02-22T17:42:55.364Z,7.27
2023-02-22T17:44:17.411Z,6.70
2023-02-22T17:45:41.053Z,6.93
2023-02-22T17:47:03.195Z,7.43
2023-02-22T17:48:26.054Z,6.10
2023-02-22T17:49:49.061Z,7.60
2023-02-22T17:51:12.322Z,5.97
2023-02-22T17:52:34.393Z,6.23
2023-02-22T17:53:56.452Z,6.70
2023-02-22T17:55:22.208Z,6.43
2023-02-22T17:56:44.714Z,6.70
2023-02-22T17:58:14.334Z,5.90
2023-02-22T17:59:36.452Z,6.20
2023-02-22T18:00:59.260Z,5.47
2023-02-22T18:02:21.489Z,5.37
2023-02-22T18:03:43.598Z,6.10
2023-02-22T18:05:06.532Z,5.93
2023-02-22T18:06:30.461Z,5.37
2023-02-22T18:07:52.755Z,5.80
2023-02-22T18:09:17.605Z,7.60
2023-02-22T18:10:42.223Z,5.47
2023-02-22T18:12:04.549Z,5.53
2023-02-22T18:13:27.931Z,5.63
2023-02-22T18:14:50.461Z,5.60
2023-02-22T18:16:12.872Z,5.20
2023-02-22T18:17:36.375Z,5.60
2023-02-22T18:19:01.015Z,5.47
2023-02-22T18:20:38.023Z,6.00
2023-02-22T18:22:03.044Z,5.20
2023-02-22T18:23:27.840Z,5.10
2023-02-22T18:24:50.044Z,5.60
2023-02-22T18:26:20.406Z,5.30
2023-02-22T18:27:45.677Z,5.40
2023-02-22T18:29:08.068Z,5.37
2023-02-22T18:30:30.204Z,4.70
2023-02-22T18:31:58.458Z,6.13
2023-02-22T18:33:20.800Z,4.93
2023-02-22T18:34:42.860Z,5.60
2023-02-22T18:36:05.344Z,5.20
2023-02-22T18:37:28.305Z,5.70
2023-02-22T18:38:53.156Z,6.77
2023-02-22T18:40:18.832Z,4.80
2023-02-22T18:41:40.932Z,4.77
2023-02-22T18:43:03.173Z,5.30
2023-02-22T18:44:27.078Z,5.37
2023-02-22T18:45:49.142Z,5.40
2023-02-22T18:47:11.257Z,6.20
2023-02-22T18:48:33.873Z,6.03
2023-02-22T18:49:57.162Z,5.33
2023-02-22T18:51:19.271Z,5.07
2023-02-22T18:52:47.194Z,6.27
2023-02-22T18:54:14.116Z,5.77
2023-02-22T18:55:39.308Z,5.00
2023-02-22T18:57:01.876Z,4.90
2023-02-22T18:58:23.976Z,4.53
2023-02-22T18:59:46.116Z,5.53
2023-02-22T19:01:08.196Z,5.20
2023-02-22T19:02:30.353Z,5.33
2023-02-22T19:03:52.723Z,5.40
2023-02-22T19:05:17.324Z,4.90
2023-02-22T19:06:40.007Z,5.43
2023-02-22T19:08:02.556Z,5.97
2023-02-22T19:09:24.859Z,5.70
2023-02-22T19:10:49.444Z,6.30
2023-02-22T19:12:11.863Z,5.97
2023-02-22T19:13:33.973Z,5.77
2023-02-22T19:14:58.139Z,6.20
2023-02-22T19:16:22.480Z,5.70
2023-02-22T19:17:45.179Z,5.10
2023-02-22T19:19:07.302Z,5.50
2023-02-22T19:20:32.998Z,4.73
2023-02-22T19:21:56.272Z,5.20